sensor_id;sensor_type;location;lat;lon;timestamp;pressure;altitude;pressure_sealevel;temperature;humidity
51297;BME280;37380;45.186;9.792;2023-05-11T00:02:15;100669.66;;;12.57;100.00
51297;BME280;37380;45.186;9.792;2023-05-11T00:04:56;100678.81;;;12.41;100.00
51297;BME280;37380;45.186;9.792;2023-05-11T00:07:24;100661.50;;;12.46;100.00
51297;BME280;37380;45.186;9.792;2023-05-11T00:09:51;100658.16;;;12.52;100.00
51297;BME280;37380;45.186;9.792;2023-05-11T00:12:18;100605.00;;;12.23;100.00
51297;BME280;37380;45.186;9.792;2023-05-11T00:14:51;100593.09;;;12.03;100.00
51297;BME280;37380;45.186;9.792;2023-05-11T00:17:18;100607.97;;;12.04;100.00
51297;BME280;37380;45.186;9.792;2023-05-11T00:19:52;100561.59;;;11.99;100.00
51297;BME280;37380;45.186;9.792;2023-05-11T00:22:53;100608.25;;;12.14;100.00
51297;BME280;37380;45.186;9.792;2023-05-11T00:25:47;100510.16;;;11.70;100.00
51297;BME280;37380;45.186;9.792;2023-05-11T00:28:14;100630.13;;;12.50;100.00
51297;BME280;37380;45.186;9.792;2023-05-11T00:30:54;100638.78;;;12.80;100.00
51297;BME280;37380;45.186;9.792;2023-05-11T00:33:48;100615.66;;;12.64;100.00
51297;BME280;37380;45.186;9.792;2023-05-11T00:36:15;100631.75;;;12.79;100.00
51297;BME280;37380;45.186;9.792;2023-05-11T00:38:54;100552.53;;;12.20;100.00
51297;BME280;37380;45.186;9.792;2023-05-11T00:41:27;100631.53;;;12.70;100.00
51297;BME280;37380;45.186;9.792;2023-05-11T00:43:54;100501.25;;;11.95;100.00
51297;BME280;37380;45.186;9.792;2023-05-11T00:46:28;100467.31;;;11.66;100.00
51297;BME280;37380;45.186;9.792;2023-05-11T00:48:55;100640.16;;;12.66;100.00
51297;BME280;37380;45.186;9.792;2023-05-11T00:51:23;100631.06;;;12.88;100.00
51297;BME280;37380;45.186;9.792;2023-05-11T00:53:53;100635.63;;;12.95;100.00
51297;BME280;37380;45.186;9.792;2023-05-11T00:56:21;100624.81;;;12.81;100.00
51297;BME280;37380;45.186;9.792;2023-05-11T00:58:51;100611.63;;;12.78;100.00
51297;BME280;37380;45.186;9.792;2023-05-11T01:01:18;100597.06;;;12.55;100.00
51297;BME280;37380;45.186;9.792;2023-05-11T01:03:46;100635.44;;;12.87;100.00
51297;BME280;37380;45.186;9.792;2023-05-11T01:06:26;100634.69;;;12.91;100.00
51297;BME280;37380;45.186;9.792;2023-05-11T01:09:02;100635.63;;;12.95;100.00
51297;BME280;37380;45.186;9.792;2023-05-11T01:14:15;100592.97;;;12.66;100.00
51297;BME280;37380;45.186;9.792;2023-05-11T01:16:55;100625.59;;;12.77;100.00
51297;BME280;37380;45.186;9.792;2023-05-11T01:19:41;100629.66;;;13.02;100.00
51297;BME280;37380;45.186;9.792;2023-05-11T01:22:55;100560.47;;;12.59;100.00
51297;BME280;37380;45.186;9.792;2023-05-11T01:25:47;100593.63;;;12.94;100.00
51297;BME280;37380;45.186;9.792;2023-05-11T01:28:51;100626.25;;;13.05;100.00
51297;BME280;37380;45.186;9.792;2023-05-11T01:31:33;100548.91;;;12.50;100.00
51297;BME280;37380;45.186;9.792;2023-05-11T01:35:03;100609.13;;;12.83;100.00
51297;BME280;37380;45.186;9.792;2023-05-11T01:37:54;100636.75;;;12.68;100.00
51297;BME280;37380;45.186;9.792;2023-05-11T01:40:33;100563.47;;;12.38;100.00
51297;BME280;37380;45.186;9.792;2023-05-11T01:43:12;100612.16;;;12.65;100.00
51297;BME280;37380;45.186;9.792;2023-05-11T01:46:09;100621.47;;;12.88;100.00
51297;BME280;37380;45.186;9.792;2023-05-11T01:48:41;100623.19;;;12.86;100.00
51297;BME280;37380;45.186;9.792;2023-05-11T01:51:10;100606.25;;;12.74;100.00
51297;BME280;37380;45.186;9.792;2023-05-11T01:53:39;100536.50;;;12.42;100.00
51297;BME280;37380;45.186;9.792;2023-05-11T01:56:10;100614.59;;;12.94;100.00
51297;BME280;37380;45.186;9.792;2023-05-11T01:58:41;100632.97;;;12.94;100.00
51297;BME280;37380;45.186;9.792;2023-05-11T02:01:10;100575.88;;;12.45;100.00
51297;BME280;37380;45.186;9.792;2023-05-11T02:03:41;100533.75;;;12.38;100.00
51297;BME280;37380;45.186;9.792;2023-05-11T02:06:17;100613.66;;;12.90;100.00
51297;BME280;37380;45.186;9.792;2023-05-11T02:09:15;100613.91;;;13.01;100.00
51297;BME280;37380;45.186;9.792;2023-05-11T02:11:52;100596.91;;;12.83;100.00
51297;BME280;37380;45.186;9.792;2023-05-11T02:14:23;100524.69;;;12.60;100.00
51297;BME280;37380;45.186;9.792;2023-05-11T02:16:55;100604.50;;;13.09;100.00
51297;BME280;37380;45.186;9.792;2023-05-11T02:19:34;100616.31;;;12.91;100.00
51297;BME280;37380;45.186;9.792;2023-05-11T02:22:29;100602.44;;;12.96;100.00
51297;BME280;37380;45.186;9.792;2023-05-11T02:24:57;100493.97;;;11.85;100.00
51297;BME280;37380;45.186;9.792;2023-05-11T02:27:25;100545.69;;;12.27;100.00
51297;BME280;37380;45.186;9.792;2023-05-11T02:29:54;100383.66;;;11.36;100.00
51297;BME280;37380;45.186;9.792;2023-05-11T02:32:29;100489.59;;;12.17;100.00
51297;BME280;37380;45.186;9.792;2023-05-11T02:35:36;100564.91;;;12.62;100.00
51297;BME280;37380;45.186;9.792;2023-05-11T02:38:34;100609.00;;;12.78;100.00
51297;BME280;37380;45.186;9.792;2023-05-11T02:41:11;100618.63;;;12.78;100.00
51297;BME280;37380;45.186;9.792;2023-05-11T02:43:45;100532.16;;;12.43;100.00
51297;BME280;37380;45.186;9.792;2023-05-11T02:46:14;100604.03;;;12.89;100.00
51297;BME280;37380;45.186;9.792;2023-05-11T02:48:55;100609.22;;;12.87;100.00
51297;BME280;37380;45.186;9.792;2023-05-11T02:51:29;100606.78;;;12.95;100.00
51297;BME280;37380;45.186;9.792;2023-05-11T02:53:59;100538.25;;;12.43;100.00
51297;BME280;37380;45.186;9.792;2023-05-11T02:56:31;100519.88;;;12.42;100.00
51297;BME280;37380;45.186;9.792;2023-05-11T02:58:59;100598.09;;;12.98;100.00
51297;BME280;37380;45.186;9.792;2023-05-11T03:01:27;100563.34;;;12.70;100.00
51297;BME280;37380;45.186;9.792;2023-05-11T03:03:57;100470.00;;;12.39;100.00
51297;BME280;37380;45.186;9.792;2023-05-11T03:06:26;100600.00;;;13.03;100.00
51297;BME280;37380;45.186;9.792;2023-05-11T03:08:53;100507.78;;;12.47;100.00
51297;BME280;37380;45.186;9.792;2023-05-11T03:11:21;100499.84;;;12.44;100.00
51297;BME280;37380;45.186;9.792;2023-05-11T03:13:49;100557.44;;;12.77;100.00
51297;BME280;37380;45.186;9.792;2023-05-11T03:16:18;100567.13;;;12.81;100.00
51297;BME280;37380;45.186;9.792;2023-05-11T03:18:57;100561.94;;;12.84;100.00
51297;BME280;37380;45.186;9.792;2023-05-11T03:21:55;100541.78;;;12.82;100.00
51297;BME280;37380;45.186;9.792;2023-05-11T03:24:27;100558.41;;;12.82;100.00
51297;BME280;37380;45.186;9.792;2023-05-11T03:26:55;100549.50;;;12.74;100.00
51297;BME280;37380;45.186;9.792;2023-05-11T03:29:26;100547.69;;;12.73;100.00
51297;BME280;37380;45.186;9.792;2023-05-11T03:32:00;100531.03;;;12.71;100.00
51297;BME280;37380;45.186;9.792;2023-05-11T03:34:54;100565.44;;;12.83;100.00
51297;BME280;37380;45.186;9.792;2023-05-11T03:37:22;100577.00;;;12.91;100.00
51297;BME280;37380;45.186;9.792;2023-05-11T03:39:54;100573.66;;;12.99;100.00
51297;BME280;37380;45.186;9.792;2023-05-11T03:42:27;100501.44;;;12.37;100.00
51297;BME280;37380;45.186;9.792;2023-05-11T03:44:56;100578.16;;;13.06;100.00
51297;BME280;37380;45.186;9.792;2023-05-11T03:47:26;100544.28;;;12.76;100.00
51297;BME280;37380;45.186;9.792;2023-05-11T03:49:56;100551.28;;;12.77;100.00
51297;BME280;37380;45.186;9.792;2023-05-11T03:52:24;100553.16;;;12.82;100.00
51297;BME280;37380;45.186;9.792;2023-05-11T03:54:52;100514.34;;;12.66;100.00
51297;BME280;37380;45.186;9.792;2023-05-11T03:57:19;100559.50;;;12.92;100.00
51297;BME280;37380;45.186;9.792;2023-05-11T03:59:47;100568.44;;;13.00;100.00
51297;BME280;37380;45.186;9.792;2023-05-11T04:02:14;100569.47;;;13.07;100.00
51297;BME280;37380;45.186;9.792;2023-05-11T04:04:41;100540.84;;;12.80;100.00
51297;BME280;37380;45.186;9.792;2023-05-11T04:07:09;100482.63;;;12.54;100.00
51297;BME280;37380;45.186;9.792;2023-05-11T04:09:43;100579.69;;;12.95;100.00
51297;BME280;37380;45.186;9.792;2023-05-11T04:12:11;100517.09;;;12.72;100.00
51297;BME280;37380;45.186;9.792;2023-05-11T04:14:54;100489.69;;;12.58;100.00
51297;BME280;37380;45.186;9.792;2023-05-11T04:17:21;100534.94;;;12.88;100.00
51297;BME280;37380;45.186;9.792;2023-05-11T04:19:54;100484.59;;;12.64;100.00
51297;BME280;37380;45.186;9.792;2023-05-11T04:22:56;100542.91;;;12.91;100.00
51297;BME280;37380;45.186;9.792;2023-05-11T04:25:54;100558.03;;;13.03;100.00
51297;BME280;37380;45.186;9.792;2023-05-11T04:28:22;100554.53;;;13.04;100.00
51297;BME280;37380;45.186;9.792;2023-05-11T04:31:00;100503.88;;;12.66;100.00
51297;BME280;37380;45.186;9.792;2023-05-11T04:33:54;100576.06;;;12.91;100.00
51297;BME280;37380;45.186;9.792;2023-05-11T04:36:21;100587.16;;;13.17;100.00
51297;BME280;37380;45.186;9.792;2023-05-11T04:38:49;100489.81;;;12.64;100.00
51297;BME280;37380;45.186;9.792;2023-05-11T04:41:16;100562.22;;;12.97;100.00
51297;BME280;37380;45.186;9.792;2023-05-11T04:43:44;100538.06;;;13.11;100.00
51297;BME280;37380;45.186;9.792;2023-05-11T04:46:11;100443.06;;;12.44;100.00
51297;BME280;37380;45.186;9.792;2023-05-11T04:48:45;100536.19;;;13.06;100.00
51297;BME280;37380;45.186;9.792;2023-05-11T04:51:12;100516.50;;;12.85;100.00
51297;BME280;37380;45.186;9.792;2023-05-11T04:53:42;100355.88;;;12.11;100.00
51297;BME280;37380;45.186;9.792;2023-05-11T04:56:16;100590.94;;;13.28;100.00
51297;BME280;37380;45.186;9.792;2023-05-11T04:58:50;100513.25;;;12.96;100.00
51297;BME280;37380;45.186;9.792;2023-05-11T05:01:18;100574.75;;;13.48;100.00
51297;BME280;37380;45.186;9.792;2023-05-11T05:03:51;100453.66;;;12.88;100.00
51297;BME280;37380;45.186;9.792;2023-05-11T05:06:18;100515.91;;;13.36;100.00
51297;BME280;37380;45.186;9.792;2023-05-11T05:08:49;100569.50;;;13.92;100.00
51297;BME280;37380;45.186;9.792;2023-05-11T05:13:00;100274.13;;;11.86;100.00
51297;BME280;37380;45.186;9.792;2023-05-11T05:16:11;100552.75;;;13.87;100.00
51297;BME280;37380;45.186;9.792;2023-05-11T05:19:07;100564.19;;;13.90;100.00
51297;BME280;37380;45.186;9.792;2023-05-11T05:22:19;100564.84;;;14.25;100.00
51297;BME280;37380;45.186;9.792;2023-05-11T05:25:13;100556.81;;;14.18;100.00
51297;BME280;37380;45.186;9.792;2023-05-11T05:27:41;100563.50;;;14.49;100.00
51297;BME280;37380;45.186;9.792;2023-05-11T05:30:21;100536.59;;;14.64;100.00
51297;BME280;37380;45.186;9.792;2023-05-11T05:33:21;100558.03;;;14.90;100.00
51297;BME280;37380;45.186;9.792;2023-05-11T05:35:48;100524.22;;;15.21;100.00
51297;BME280;37380;45.186;9.792;2023-05-11T05:38:22;100561.09;;;15.92;100.00
51297;BME280;37380;45.186;9.792;2023-05-11T05:41:17;100503.03;;;15.81;100.00
51297;BME280;37380;45.186;9.792;2023-05-11T05:43:51;100496.78;;;15.72;100.00
51297;BME280;37380;45.186;9.792;2023-05-11T05:46:56;100546.25;;;16.00;100.00
51297;BME280;37380;45.186;9.792;2023-05-11T05:49:53;100507.47;;;15.86;100.00
51297;BME280;37380;45.186;9.792;2023-05-11T05:52:20;100483.91;;;16.05;100.00
51297;BME280;37380;45.186;9.792;2023-05-11T05:54:48;100545.91;;;16.58;100.00
51297;BME280;37380;45.186;9.792;2023-05-11T05:57:16;100535.31;;;16.55;100.00
51297;BME280;37380;45.186;9.792;2023-05-11T05:59:44;100532.78;;;16.70;100.00
51297;BME280;37380;45.186;9.792;2023-05-11T06:02:15;100450.72;;;16.27;100.00
51297;BME280;37380;45.186;9.792;2023-05-11T06:04:42;100565.75;;;17.37;100.00
51297;BME280;37380;45.186;9.792;2023-05-11T06:07:09;100569.06;;;16.99;100.00
51297;BME280;37380;45.186;9.792;2023-05-11T06:09:43;100300.00;;;15.65;100.00
51297;BME280;37380;45.186;9.792;2023-05-11T06:12:16;100555.06;;;17.11;100.00
51297;BME280;37380;45.186;9.792;2023-05-11T06:15:17;100530.22;;;16.78;100.00
51297;BME280;37380;45.186;9.792;2023-05-11T06:18:28;100546.72;;;16.49;100.00
51297;BME280;37380;45.186;9.792;2023-05-11T06:21:23;100456.84;;;16.25;100.00
51297;BME280;37380;45.186;9.792;2023-05-11T06:23:51;100561.16;;;17.04;100.00
51297;BME280;37380;45.186;9.792;2023-05-11T06:26:24;100548.78;;;16.90;100.00
51297;BME280;37380;45.186;9.792;2023-05-11T06:29:26;100573.63;;;17.26;100.00
51297;BME280;37380;45.186;9.792;2023-05-11T06:32:21;100563.16;;;17.49;100.00
51297;BME280;37380;45.186;9.792;2023-05-11T06:34:48;100563.97;;;17.36;100.00
51297;BME280;37380;45.186;9.792;2023-05-11T06:37:15;100450.13;;;16.73;100.00
51297;BME280;37380;45.186;9.792;2023-05-11T06:39:48;100556.09;;;17.43;100.00
51297;BME280;37380;45.186;9.792;2023-05-11T06:42:16;100549.06;;;17.50;100.00
51297;BME280;37380;45.186;9.792;2023-05-11T06:44:44;100493.59;;;17.53;100.00
51297;BME280;37380;45.186;9.792;2023-05-11T06:47:11;100564.28;;;18.25;100.00
51297;BME280;37380;45.186;9.792;2023-05-11T06:49:44;100552.81;;;18.21;100.00
51297;BME280;37380;45.186;9.792;2023-05-11T06:52:11;100503.41;;;17.97;100.00
51297;BME280;37380;45.186;9.792;2023-05-11T06:54:38;100541.34;;;18.38;100.00
51297;BME280;37380;45.186;9.792;2023-05-11T06:57:05;100533.44;;;18.56;100.00
51297;BME280;37380;45.186;9.792;2023-05-11T06:59:33;100469.91;;;17.85;100.00
51297;BME280;37380;45.186;9.792;2023-05-11T07:02:00;100554.56;;;18.07;100.00
51297;BME280;37380;45.186;9.792;2023-05-11T07:04:27;100530.78;;;18.27;100.00
51297;BME280;37380;45.186;9.792;2023-05-11T07:06:55;100553.69;;;18.54;100.00
51297;BME280;37380;45.186;9.792;2023-05-11T07:09:22;100505.19;;;18.49;100.00
51297;BME280;37380;45.186;9.792;2023-05-11T07:11:58;100569.50;;;19.14;100.00
51297;BME280;37380;45.186;9.792;2023-05-11T07:14:53;100495.41;;;19.06;100.00
51297;BME280;37380;45.186;9.792;2023-05-11T07:17:20;100520.97;;;19.18;100.00
51297;BME280;37380;45.186;9.792;2023-05-11T07:19:57;100480.41;;;18.99;100.00
51297;BME280;37380;45.186;9.792;2023-05-11T07:22:55;100557.00;;;19.70;100.00
51297;BME280;37380;45.186;9.792;2023-05-11T07:25:27;100430.97;;;19.04;100.00
51297;BME280;37380;45.186;9.792;2023-05-11T07:27:55;100557.78;;;19.81;100.00
51297;BME280;37380;45.186;9.792;2023-05-11T07:30:22;100562.50;;;18.04;100.00
51297;BME280;37380;45.186;9.792;2023-05-11T07:32:51;100454.97;;;17.84;100.00
51297;BME280;37380;45.186;9.792;2023-05-11T07:35:28;100276.97;;;16.84;100.00
51297;BME280;37380;45.186;9.792;2023-05-11T07:38:01;100538.50;;;17.42;100.00
51297;BME280;37380;45.186;9.792;2023-05-11T07:41:05;100542.22;;;18.89;100.00
51297;BME280;37380;45.186;9.792;2023-05-11T07:43:59;100543.78;;;19.48;100.00
51297;BME280;37380;45.186;9.792;2023-05-11T07:46:27;100513.50;;;20.01;100.00
51297;BME280;37380;45.186;9.792;2023-05-11T07:48:54;100556.16;;;19.52;100.00
51297;BME280;37380;45.186;9.792;2023-05-11T07:51:48;100553.28;;;19.98;100.00
51297;BME280;37380;45.186;9.792;2023-05-11T07:54:42;100441.56;;;19.04;100.00
51297;BME280;37380;45.186;9.792;2023-05-11T07:57:15;100546.88;;;20.27;100.00
51297;BME280;37380;45.186;9.792;2023-05-11T07:59:48;100353.22;;;20.27;100.00
51297;BME280;37380;45.186;9.792;2023-05-11T08:02:15;100290.91;;;20.63;95.45
51297;BME280;37380;45.186;9.792;2023-05-11T08:04:50;100450.06;;;21.46;90.37
51297;BME280;37380;45.186;9.792;2023-05-11T08:07:18;100443.19;;;19.36;100.00
51297;BME280;37380;45.186;9.792;2023-05-11T08:09:45;100456.56;;;19.07;100.00
51297;BME280;37380;45.186;9.792;2023-05-11T08:12:18;100360.34;;;19.05;100.00
51297;BME280;37380;45.186;9.792;2023-05-11T08:15:14;100402.19;;;19.92;100.00
51297;BME280;37380;45.186;9.792;2023-05-11T08:17:48;100401.97;;;20.17;100.00
51297;BME280;37380;45.186;9.792;2023-05-11T08:20:48;100485.16;;;21.02;94.68
51297;BME280;37380;45.186;9.792;2023-05-11T08:23:22;100446.56;;;20.70;100.00
51297;BME280;37380;45.186;9.792;2023-05-11T08:25:56;100467.94;;;21.35;91.15
51297;BME280;37380;45.186;9.792;2023-05-11T08:28:51;100485.66;;;20.51;100.00
51297;BME280;37380;45.186;9.792;2023-05-11T08:31:18;100492.13;;;21.11;96.64
51297;BME280;37380;45.186;9.792;2023-05-11T08:33:46;100488.53;;;21.16;96.00
51297;BME280;37380;45.186;9.792;2023-05-11T08:36:16;100536.06;;;21.42;92.23
51297;BME280;37380;45.186;9.792;2023-05-11T08:38:51;100287.88;;;20.18;93.53
51297;BME280;37380;45.186;9.792;2023-05-11T08:41:25;100326.63;;;20.33;87.64
51297;BME280;37380;45.186;9.792;2023-05-11T08:43:56;100552.81;;;21.51;94.47
51297;BME280;37380;45.186;9.792;2023-05-11T08:46:28;100571.91;;;21.80;91.40
51297;BME280;37380;45.186;9.792;2023-05-11T08:48:56;100549.34;;;21.42;90.38
51297;BME280;37380;45.186;9.792;2023-05-11T08:51:24;100419.66;;;21.01;87.39
51297;BME280;37380;45.186;9.792;2023-05-11T08:53:53;100364.03;;;20.07;90.42
51297;BME280;37380;45.186;9.792;2023-05-11T08:56:25;100415.41;;;19.97;94.28
51297;BME280;37380;45.186;9.792;2023-05-11T08:58:56;100505.94;;;20.62;99.02
51297;BME280;37380;45.186;9.792;2023-05-11T09:01:27;100509.75;;;20.27;98.27
51297;BME280;37380;45.186;9.792;2023-05-11T09:03:55;100484.31;;;20.98;98.29
51297;BME280;37380;45.186;9.792;2023-05-11T09:06:24;100550.13;;;19.10;100.00
51297;BME280;37380;45.186;9.792;2023-05-11T09:08:53;100526.22;;;19.35;100.00
51297;BME280;37380;45.186;9.792;2023-05-11T09:11:20;100531.66;;;18.70;100.00
51297;BME280;37380;45.186;9.792;2023-05-11T09:13:49;100335.81;;;18.64;100.00
51297;BME280;37380;45.186;9.792;2023-05-11T09:16:17;100468.22;;;20.23;100.00
51297;BME280;37380;45.186;9.792;2023-05-11T09:19:13;100548.88;;;21.07;100.00
51297;BME280;37380;45.186;9.792;2023-05-11T09:22:13;100531.75;;;21.32;91.94
51297;BME280;37380;45.186;9.792;2023-05-11T09:25:14;100538.81;;;21.36;95.42
51297;BME280;37380;45.186;9.792;2023-05-11T09:27:44;100460.53;;;21.57;93.46
51297;BME280;37380;45.186;9.792;2023-05-11T09:30:19;100542.44;;;22.53;88.89
51297;BME280;37380;45.186;9.792;2023-05-11T09:35:29;100562.94;;;22.49;88.23
51297;BME280;37380;45.186;9.792;2023-05-11T09:40:26;100535.81;;;21.62;99.28
51297;BME280;37380;45.186;9.792;2023-05-11T09:43:00;100492.72;;;21.36;93.37
51297;BME280;37380;45.186;9.792;2023-05-11T09:45:35;100478.47;;;21.44;90.12
51297;BME280;37380;45.186;9.792;2023-05-11T09:48:07;100416.81;;;21.13;85.79
51297;BME280;37380;45.186;9.792;2023-05-11T09:50:39;100484.97;;;20.31;93.96
51297;BME280;37380;45.186;9.792;2023-05-11T09:53:14;100508.78;;;20.35;99.60
51297;BME280;37380;45.186;9.792;2023-05-11T09:56:08;100534.41;;;21.32;90.68
51297;BME280;37380;45.186;9.792;2023-05-11T09:58:49;100540.72;;;21.91;85.88
51297;BME280;37380;45.186;9.792;2023-05-11T10:01:26;100540.91;;;21.79;82.11
51297;BME280;37380;45.186;9.792;2023-05-11T10:03:55;100489.13;;;21.41;82.76
51297;BME280;37380;45.186;9.792;2023-05-11T10:06:51;100240.13;;;19.32;81.79
51297;BME280;37380;45.186;9.792;2023-05-11T10:09:28;100535.25;;;20.46;90.35
51297;BME280;37380;45.186;9.792;2023-05-11T10:11:56;100226.03;;;19.27;84.95
51297;BME280;37380;45.186;9.792;2023-05-11T10:14:27;100196.41;;;18.72;87.83
51297;BME280;37380;45.186;9.792;2023-05-11T10:17:16;100382.16;;;20.54;87.95
51297;BME280;37380;45.186;9.792;2023-05-11T10:20:05;100399.28;;;20.18;93.08
51297;BME280;37380;45.186;9.792;2023-05-11T10:23:30;100222.97;;;19.74;89.79
51297;BME280;37380;45.186;9.792;2023-05-11T10:26:24;100517.31;;;22.15;83.97
51297;BME280;37380;45.186;9.792;2023-05-11T10:29:00;100539.03;;;22.45;89.21
51297;BME280;37380;45.186;9.792;2023-05-11T10:31:30;100379.94;;;21.55;84.03
51297;BME280;37380;45.186;9.792;2023-05-11T10:34:09;100396.00;;;22.54;78.43
51297;BME280;37380;45.186;9.792;2023-05-11T10:36:53;100211.41;;;19.80;88.38
51297;BME280;37380;45.186;9.792;2023-05-11T10:39:30;100215.16;;;18.26;97.52
51297;BME280;37380;45.186;9.792;2023-05-11T11:04:58;100226.97;;;21.85;74.52
51297;BME280;37380;45.186;9.792;2023-05-11T11:07:31;100490.09;;;22.52;76.27
51297;BME280;37380;45.186;9.792;2023-05-11T11:10:00;100194.63;;;21.62;75.95
51297;BME280;37380;45.186;9.792;2023-05-11T11:13:08;100178.25;;;22.28;71.66
51297;BME280;37380;45.186;9.792;2023-05-11T11:16:22;100266.25;;;20.52;81.42
51297;BME280;37380;45.186;9.792;2023-05-11T11:25:50;100142.28;;;17.56;100.00
51297;BME280;37380;45.186;9.792;2023-05-11T11:31:30;100281.28;;;18.32;100.00
51297;BME280;37380;45.186;9.792;2023-05-11T11:39:28;100318.97;;;18.91;100.00
51297;BME280;37380;45.186;9.792;2023-05-11T11:42:31;100186.13;;;18.22;100.00
51297;BME280;37380;45.186;9.792;2023-05-11T11:45:41;100170.50;;;17.33;100.00
51297;BME280;37380;45.186;9.792;2023-05-11T11:48:33;100260.22;;;17.97;100.00
51297;BME280;37380;45.186;9.792;2023-05-11T11:51:12;100339.69;;;19.59;100.00
51297;BME280;37380;45.186;9.792;2023-05-11T11:54:20;100419.97;;;21.44;95.81
51297;BME280;37380;45.186;9.792;2023-05-11T12:00:13;100181.38;;;18.73;100.00
51297;BME280;37380;45.186;9.792;2023-05-11T12:02:50;100274.06;;;18.67;100.00
51297;BME280;37380;45.186;9.792;2023-05-11T12:05:19;100274.34;;;17.98;100.00
51297;BME280;37380;45.186;9.792;2023-05-11T12:07:51;100107.94;;;17.56;100.00
51297;BME280;37380;45.186;9.792;2023-05-11T12:10:36;100272.53;;;18.03;100.00
51297;BME280;37380;45.186;9.792;2023-05-11T12:13:08;100466.25;;;19.15;100.00
51297;BME280;37380;45.186;9.792;2023-05-11T12:16:12;100479.34;;;19.40;100.00
51297;BME280;37380;45.186;9.792;2023-05-11T12:19:00;100514.72;;;20.70;100.00
51297;BME280;37380;45.186;9.792;2023-05-11T12:21:58;100349.34;;;19.69;85.18
51297;BME280;37380;45.186;9.792;2023-05-11T12:27:58;100370.94;;;19.06;91.45
51297;BME280;37380;45.186;9.792;2023-05-11T12:30:54;100394.44;;;19.60;92.72
51297;BME280;37380;45.186;9.792;2023-05-11T12:33:33;100152.47;;;18.44;90.08
51297;BME280;37380;45.186;9.792;2023-05-11T12:36:15;100496.00;;;20.84;90.18
51297;BME280;37380;45.186;9.792;2023-05-11T12:38:51;100271.16;;;19.14;88.67
51297;BME280;37380;45.186;9.792;2023-05-11T12:41:20;100296.94;;;18.82;86.50
51297;BME280;37380;45.186;9.792;2023-05-11T12:43:54;100476.31;;;21.01;77.51
51297;BME280;37380;45.186;9.792;2023-05-11T12:46:29;100466.69;;;19.96;80.91
51297;BME280;37380;45.186;9.792;2023-05-11T12:49:33;100437.03;;;20.54;79.96
51297;BME280;37380;45.186;9.792;2023-05-11T12:52:34;100391.53;;;19.95;88.61
51297;BME280;37380;45.186;9.792;2023-05-11T12:55:35;100454.94;;;21.12;85.22
51297;BME280;37380;45.186;9.792;2023-05-11T12:58:37;100469.88;;;21.21;86.17
51297;BME280;37380;45.186;9.792;2023-05-11T13:01:06;100433.97;;;19.95;88.43
51297;BME280;37380;45.186;9.792;2023-05-11T13:03:50;100308.31;;;19.00;93.66
51297;BME280;37380;45.186;9.792;2023-05-11T13:06:19;100342.72;;;19.08;98.97
51297;BME280;37380;45.186;9.792;2023-05-11T13:08:46;100262.66;;;18.57;93.46
51297;BME280;37380;45.186;9.792;2023-05-11T13:11:22;100462.31;;;19.90;89.95
51297;BME280;37380;45.186;9.792;2023-05-11T13:14:20;100153.44;;;19.46;84.85
51297;BME280;37380;45.186;9.792;2023-05-11T13:16:58;100316.44;;;18.62;98.08
51297;BME280;37380;45.186;9.792;2023-05-11T13:19:32;100192.81;;;18.84;97.92
51297;BME280;37380;45.186;9.792;2023-05-11T13:22:26;100454.25;;;20.93;84.98
51297;BME280;37380;45.186;9.792;2023-05-11T13:25:02;100431.16;;;20.17;94.51
51297;BME280;37380;45.186;9.792;2023-05-11T13:27:30;100435.00;;;20.77;87.36
51297;BME280;37380;45.186;9.792;2023-05-11T13:29:58;100414.97;;;20.41;87.58
51297;BME280;37380;45.186;9.792;2023-05-11T13:32:25;100418.81;;;20.11;93.11
51297;BME280;37380;45.186;9.792;2023-05-11T13:34:52;100369.09;;;20.30;88.61
51297;BME280;37380;45.186;9.792;2023-05-11T13:37:19;100377.25;;;20.10;80.07
51297;BME280;37380;45.186;9.792;2023-05-11T13:39:46;100432.00;;;20.19;82.30
51297;BME280;37380;45.186;9.792;2023-05-11T13:42:13;100282.75;;;20.03;80.95
51297;BME280;37380;45.186;9.792;2023-05-11T13:44:51;100109.53;;;18.02;84.64
51297;BME280;37380;45.186;9.792;2023-05-11T13:47:25;100224.00;;;18.25;90.87
51297;BME280;37380;45.186;9.792;2023-05-11T13:50:17;100063.16;;;17.21;90.88
51297;BME280;37380;45.186;9.792;2023-05-11T13:53:11;100418.09;;;19.89;92.33
51297;BME280;37380;45.186;9.792;2023-05-11T13:56:05;100389.06;;;19.78;92.18
51297;BME280;37380;45.186;9.792;2023-05-11T13:59:04;100397.28;;;19.31;95.88
51297;BME280;37380;45.186;9.792;2023-05-11T14:01:41;100426.63;;;20.28;92.14
51297;BME280;37380;45.186;9.792;2023-05-11T14:04:35;100435.78;;;20.86;87.10
51297;BME280;37380;45.186;9.792;2023-05-11T14:07:02;100419.13;;;20.70;89.01
51297;BME280;37380;45.186;9.792;2023-05-11T14:09:29;100381.88;;;19.86;88.33
51297;BME280;37380;45.186;9.792;2023-05-11T14:11:56;100302.06;;;19.11;90.07
51297;BME280;37380;45.186;9.792;2023-05-11T14:14:23;100400.06;;;19.09;86.65
51297;BME280;37380;45.186;9.792;2023-05-11T14:16:50;100382.28;;;19.28;90.25
51297;BME280;37380;45.186;9.792;2023-05-11T14:19:17;100367.88;;;19.72;85.80
51297;BME280;37380;45.186;9.792;2023-05-11T14:21:45;100405.31;;;19.15;85.25
51297;BME280;37380;45.186;9.792;2023-05-11T14:24:12;100414.97;;;19.26;89.17
51297;BME280;37380;45.186;9.792;2023-05-11T14:26:39;100385.88;;;19.21;86.24
51297;BME280;37380;45.186;9.792;2023-05-11T14:29:07;100357.94;;;18.46;88.96
51297;BME280;37380;45.186;9.792;2023-05-11T14:31:37;100420.44;;;18.87;87.51